createdAt,value
2023-02-11T00:00:08.477Z,100460.78
2023-02-11T00:03:12.621Z,100449.38
2023-02-11T00:06:15.389Z,100449.66
2023-02-11T00:09:18.165Z,100461.19
2023-02-11T00:12:21.161Z,100450.38
2023-02-11T00:15:24.023Z,100453.88
2023-02-11T00:18:28.893Z,100450.09
2023-02-11T00:21:31.644Z,100446.72
2023-02-11T00:24:34.431Z,100442.06
2023-02-11T00:27:38.079Z,100450.22
2023-02-11T00:30:41.093Z,100453.41
2023-02-11T00:33:45.739Z,100458.25
2023-02-11T00:36:49.463Z,100455.56
2023-02-11T00:39:52.289Z,100452.66
2023-02-11T00:42:55.051Z,100450.22
2023-02-11T00:45:58.804Z,100450.09
2023-02-11T00:49:02.908Z,100442.69
2023-02-11T00:52:05.799Z,100434.19
2023-02-11T00:55:08.965Z,100439.31
2023-02-11T00:58:12.785Z,100435.50
2023-02-11T01:01:15.937Z,100440.25
2023-02-11T01:04:20.132Z,100435.03
2023-02-11T01:07:23.263Z,100432.38
2023-02-11T01:10:26.404Z,100426.78
2023-02-11T01:13:29.650Z,100422.53
2023-02-11T01:16:32.435Z,100428.72
2023-02-11T01:19:37.541Z,100427.16
2023-02-11T01:22:40.390Z,100426.66
2023-02-11T01:25:43.144Z,100438.19
2023-02-11T01:28:45.956Z,100437.56
2023-02-11T01:31:49.073Z,100438.03
2023-02-11T01:34:53.238Z,100432.25
2023-02-11T01:37:55.931Z,100436.75
2023-02-11T01:40:59.654Z,100436.50
2023-02-11T01:44:17.167Z,100434.91
2023-02-11T01:47:20.143Z,100430.69
2023-02-11T01:50:24.306Z,100435.50
2023-02-11T01:53:44.782Z,100430.31
2023-02-11T01:57:08.324Z,100437.91
2023-02-11T02:00:12.981Z,100437.47
2023-02-11T02:03:19.516Z,100442.22
2023-02-11T02:06:27.493Z,100440.66
2023-02-11T02:09:33.480Z,100444.31
2023-02-11T02:12:36.255Z,100442.28
2023-02-11T02:15:40.475Z,100445.34
2023-02-11T02:18:49.836Z,100442.69
2023-02-11T02:22:06.186Z,100439.31
2023-02-11T02:25:23.703Z,100441.06
2023-02-11T02:28:38.096Z,100445.31
2023-02-11T02:31:48.269Z,100441.72
2023-02-11T02:34:54.933Z,100433.22
2023-02-11T02:38:02.020Z,100442.56
2023-02-11T02:41:07.763Z,100435.81
2023-02-11T02:44:10.536Z,100428.50
2023-02-11T02:47:13.236Z,100426.94
2023-02-11T02:50:19.660Z,100421.84
2023-02-11T02:53:28.007Z,100433.84
2023-02-11T02:56:35.551Z,100436.03
2023-02-11T02:59:46.091Z,100436.28
2023-02-11T03:02:53.285Z,100427.31
2023-02-11T03:06:01.654Z,100417.72
2023-02-11T03:09:10.342Z,100420.53
2023-02-11T03:12:15.259Z,100414.84
2023-02-11T03:15:18.943Z,100416.78
2023-02-11T03:18:23.439Z,100414.88
2023-02-11T03:21:28.322Z,100407.22
2023-02-11T03:24:32.313Z,100406.00
2023-02-11T03:27:39.900Z,100408.19
2023-02-11T03:30:45.346Z,100407.47
2023-02-11T03:33:55.442Z,100415.69
2023-02-11T03:37:02.984Z,100410.94
2023-02-11T03:40:07.863Z,100408.75
2023-02-11T03:43:13.433Z,100409.13
2023-02-11T03:46:17.975Z,100403.19
2023-02-11T03:49:22.971Z,100409.38
2023-02-11T03:52:27.858Z,100408.00
2023-02-11T03:55:31.750Z,100402.56
2023-02-11T03:58:34.475Z,100405.56
2023-02-11T04:01:37.287Z,100396.97
2023-02-11T04:04:39.970Z,100401.88
2023-02-11T04:07:44.133Z,100406.59
2023-02-11T04:10:46.830Z,100406.50
2023-02-11T04:13:49.657Z,100406.13
2023-02-11T04:16:52.425Z,100406.97
2023-02-11T04:19:55.195Z,100403.31
2023-02-11T04:22:59.355Z,100401.50
2023-02-11T04:26:02.105Z,100406.22
2023-02-11T04:29:04.910Z,100405.25
2023-02-11T04:32:07.750Z,100411.19
2023-02-11T04:35:10.612Z,100406.31
2023-02-11T04:38:15.030Z,100404.03
2023-02-11T04:41:17.764Z,100417.13
2023-02-11T04:44:20.471Z,100409.97
2023-02-11T04:47:23.255Z,100415.03
2023-02-11T04:50:26.095Z,100409.56
2023-02-11T04:53:30.262Z,100408.50
2023-02-11T04:56:33.080Z,100400.34
2023-02-11T04:59:35.871Z,100403.03
2023-02-11T05:02:38.627Z,100399.25
2023-02-11T05:05:41.748Z,100403.50
2023-02-11T05:08:45.959Z,100407.72
2023-02-11T05:11:49.018Z,100407.59
2023-02-11T05:14:51.883Z,100409.28
2023-02-11T05:17:54.716Z,100415.50
2023-02-11T05:20:57.618Z,100409.56
2023-02-11T05:24:01.823Z,100403.00
2023-02-11T05:27:04.660Z,100397.53
2023-02-11T05:30:08.068Z,100408.78
2023-02-11T05:33:10.843Z,100394.59
2023-02-11T05:36:17.559Z,100390.00
2023-02-11T05:39:21.904Z,100406.00
2023-02-11T05:42:24.678Z,100401.38
2023-02-11T05:45:27.464Z,100391.06
2023-02-11T05:48:30.293Z,100395.91
2023-02-11T05:51:33.043Z,100385.50
2023-02-11T05:54:37.204Z,100393.09
2023-02-11T05:57:39.910Z,100391.19
2023-02-11T06:00:42.650Z,100383.28
2023-02-11T06:03:45.454Z,100387.78
2023-02-11T06:06:48.188Z,100381.44
2023-02-11T06:09:52.346Z,100378.72
2023-02-11T06:12:55.064Z,100372.47
2023-02-11T06:15:58.459Z,100376.59
2023-02-11T06:19:01.304Z,100371.78
2023-02-11T06:22:04.810Z,100360.47
2023-02-11T06:25:09.268Z,100363.63
2023-02-11T06:28:12.050Z,100359.88
2023-02-11T06:31:15.253Z,100357.72
2023-02-11T06:34:18.085Z,100362.34
2023-02-11T06:37:20.924Z,100361.13
2023-02-11T06:40:25.095Z,100356.44
2023-02-11T06:43:27.912Z,100366.03
2023-02-11T06:46:30.784Z,100368.34
2023-02-11T06:49:33.673Z,100365.28
2023-02-11T06:52:36.383Z,100359.47
2023-02-11T06:55:40.542Z,100356.81
2023-02-11T06:58:43.248Z,100353.44
2023-02-11T07:01:46.092Z,100366.00
2023-02-11T07:04:48.887Z,100366.00
2023-02-11T07:07:51.632Z,100362.41
2023-02-11T07:10:56.272Z,100359.50
2023-02-11T07:14:01.728Z,100354.88
2023-02-11T07:17:04.874Z,100350.75
2023-02-11T07:20:08.872Z,100356.31
2023-02-11T07:23:11.650Z,100353.75
2023-02-11T07:26:16.574Z,100364.50
2023-02-11T07:29:19.281Z,100370.09
2023-02-11T07:32:22.003Z,100369.13
2023-02-11T07:35:24.778Z,100371.84
2023-02-11T07:38:27.790Z,100367.94
2023-02-11T07:41:32.506Z,100371.94
2023-02-11T07:44:36.924Z,100365.78
2023-02-11T07:47:39.777Z,100379.84
2023-02-11T07:50:42.508Z,100366.47
2023-02-11T07:53:46.992Z,100374.59
2023-02-11T07:56:51.179Z,100366.97
2023-02-11T07:59:54.378Z,100359.91
2023-02-11T08:02:58.082Z,100347.53
2023-02-11T08:06:04.147Z,100343.16
2023-02-11T08:09:07.599Z,100347.25
2023-02-11T08:12:11.858Z,100350.53
2023-02-11T08:15:14.788Z,100338.19
2023-02-11T08:18:18.550Z,100338.53
2023-02-11T08:21:21.941Z,100335.13
2023-02-11T08:24:24.753Z,100325.94
2023-02-11T08:27:28.821Z,100323.00
2023-02-11T08:30:31.535Z,100321.78
2023-02-11T08:33:34.350Z,100314.75
2023-02-11T08:36:37.770Z,100318.13
2023-02-11T08:39:40.583Z,100323.94
2023-02-11T08:42:44.616Z,100325.06
2023-02-11T08:45:47.347Z,100324.94
2023-02-11T08:48:50.073Z,100318.47
2023-02-11T08:51:54.203Z,100305.84
2023-02-11T08:54:57.105Z,100305.72
2023-02-11T08:58:01.358Z,100310.94
2023-02-11T09:01:09.743Z,100303.63
2023-02-11T09:04:12.559Z,100291.97
2023-02-11T09:07:15.487Z,100286.13
2023-02-11T09:10:18.265Z,100286.50
2023-02-11T09:13:22.356Z,100280.09
2023-02-11T09:16:26.572Z,100277.16
2023-02-11T09:19:29.422Z,100272.66
2023-02-11T09:22:32.220Z,100268.75
2023-02-11T09:25:35.041Z,100256.63
2023-02-11T09:28:39.263Z,100260.75
2023-02-11T09:31:42.316Z,100259.25
2023-02-11T09:34:45.103Z,100264.59
2023-02-11T09:37:47.789Z,100257.09
2023-02-11T09:40:50.738Z,100249.56
2023-02-11T09:43:55.867Z,100236.19
2023-02-11T09:46:59.915Z,100237.75
2023-02-11T09:50:04.289Z,100220.88
2023-02-11T09:53:11.228Z,100220.19
2023-02-11T09:56:14.819Z,100215.56
2023-02-11T09:59:20.226Z,100213.47
2023-02-11T10:02:25.819Z,100214.56
2023-02-11T10:05:36.195Z,100207.00
2023-02-11T10:08:43.971Z,100211.22
2023-02-11T10:11:51.362Z,100202.78
2023-02-11T10:15:04.367Z,100198.72
2023-02-11T10:18:18.433Z,100187.19
2023-02-11T10:21:25.570Z,100184.00
2023-02-11T10:24:29.812Z,100184.00
2023-02-11T10:27:35.023Z,100193.13
2023-02-11T10:30:41.771Z,100181.47
2023-02-11T10:33:46.870Z,100182.47
2023-02-11T10:36:49.789Z,100179.13
2023-02-11T10:39:52.640Z,100183.59
2023-02-11T10:43:00.095Z,100171.66
2023-02-11T10:46:07.631Z,100161.41
2023-02-11T10:49:10.341Z,100170.56
2023-02-11T10:52:17.152Z,100171.09
2023-02-11T10:55:21.830Z,100168.72
2023-02-11T10:58:25.587Z,100161.16
2023-02-11T11:01:46.327Z,100152.00
2023-02-11T11:04:49.782Z,100150.19
2023-02-11T11:07:54.129Z,100152.56
2023-02-11T11:11:03.860Z,100139.50
2023-02-11T11:14:06.644Z,100122.94
2023-02-11T11:17:14.444Z,100123.78
2023-02-11T11:20:20.941Z,100123.03
2023-02-11T11:23:24.768Z,100118.00
2023-02-11T11:26:29.092Z,100111.97
2023-02-11T11:29:34.231Z,100103.41
2023-02-11T11:32:39.893Z,100093.81
2023-02-11T11:35:42.670Z,100095.94
2023-02-11T11:38:46.819Z,100089.06
2023-02-11T11:41:54.597Z,100083.88
2023-02-11T11:44:59.044Z,100075.56
2023-02-11T11:48:07.010Z,100078.78
2023-02-11T11:51:11.672Z,100079.47
2023-02-11T11:54:16.507Z,100071.34
2023-02-11T11:57:20.755Z,100072.19
2023-02-11T12:00:27.656Z,100061.34
2023-02-11T12:04:01.430Z,100061.91
2023-02-11T12:07:13.040Z,100050.38
2023-02-11T12:10:35.187Z,100051.53
2023-02-11T12:13:58.557Z,100043.66
2023-02-11T12:17:04.223Z,100036.59
2023-02-11T12:20:21.985Z,100041.19
2023-02-11T12:23:39.915Z,100041.19
2023-02-11T12:26:45.655Z,100035.00
2023-02-11T12:29:55.065Z,100033.16
2023-02-11T12:33:05.227Z,100033.00
2023-02-11T12:36:10.997Z,100036.25
2023-02-11T12:39:23.167Z,100023.88
2023-02-11T12:42:51.963Z,100017.13
2023-02-11T12:46:10.970Z,100006.72
2023-02-11T12:49:32.724Z,100002.91
2023-02-11T12:52:43.391Z,99989.31
2023-02-11T12:55:49.896Z,99984.75
2023-02-11T12:58:53.702Z,99981.00
2023-02-11T13:01:57.263Z,99986.19
2023-02-11T13:05:03.931Z,99981.69
2023-02-11T13:08:12.165Z,99959.34
2023-02-11T13:11:18.625Z,99963.41
2023-02-11T13:14:25.427Z,99967.06
2023-02-11T13:17:31.798Z,99952.72
2023-02-11T13:20:39.256Z,99949.63
2023-02-11T13:23:45.854Z,99942.41
2023-02-11T13:26:55.855Z,99933.81
2023-02-11T13:30:14.882Z,99931.88
2023-02-11T13:33:19.442Z,99926.88
2023-02-11T13:36:23.646Z,99923.94
2023-02-11T13:39:26.534Z,99912.59
2023-02-11T13:42:32.100Z,99917.25
2023-02-11T13:45:39.515Z,99920.22
2023-02-11T13:48:47.424Z,99909.53
2023-02-11T13:51:50.791Z,99908.00
2023-02-11T13:54:55.236Z,99908.28
2023-02-11T13:58:12.793Z,99898.72
2023-02-11T14:01:40.272Z,99897.31
2023-02-11T14:05:11.758Z,99893.91
2023-02-11T14:08:38.732Z,99895.91
2023-02-11T14:11:44.380Z,99889.56
2023-02-11T14:15:02.867Z,99888.44
2023-02-11T14:18:21.462Z,99894.34
2023-02-11T14:21:32.672Z,99888.00
2023-02-11T14:24:47.031Z,99892.50
2023-02-11T14:27:55.349Z,99890.28
2023-02-11T14:31:04.277Z,99888.16
2023-02-11T14:34:20.637Z,99883.50
2023-02-11T14:37:38.833Z,99884.78
2023-02-11T14:40:47.750Z,99889.56
2023-02-11T14:43:52.903Z,99874.94
2023-02-11T14:46:56.299Z,99878.88
2023-02-11T14:49:59.147Z,99876.75
2023-02-11T14:53:05.759Z,99876.34
2023-02-11T14:56:17.825Z,99864.28
2023-02-11T14:59:21.974Z,99857.50
2023-02-11T15:02:26.422Z,99864.81
2023-02-11T15:05:30.116Z,99862.59
2023-02-11T15:08:35.467Z,99862.00
2023-02-11T15:11:40.325Z,99854.97
2023-02-11T15:14:46.847Z,99853.16
2023-02-11T15:17:49.902Z,99853.03
2023-02-11T15:20:53.321Z,99848.47
2023-02-11T15:23:58.335Z,99839.78
2023-02-11T15:27:01.839Z,99834.28
2023-02-11T15:30:18.806Z,99838.09
2023-02-11T15:33:22.957Z,99830.34
2023-02-11T15:36:34.385Z,99826.53
2023-02-11T15:39:41.053Z,99823.28
2023-02-11T15:42:55.718Z,99823.28
2023-02-11T15:46:02.638Z,99819.50
2023-02-11T15:49:06.679Z,99812.75
2023-02-11T15:52:09.552Z,99816.84
2023-02-11T15:55:15.383Z,99817.00
2023-02-11T15:58:18.200Z,99811.63
2023-02-11T16:01:32.420Z,99808.66
2023-02-11T16:04:37.283Z,99801.63
2023-02-11T16:07:41.260Z,99791.94
2023-02-11T16:10:54.494Z,99779.13
2023-02-11T16:13:59.079Z,99770.69
2023-02-11T16:17:03.899Z,99784.06
2023-02-11T16:20:07.335Z,99770.69
2023-02-11T16:23:19.799Z,99761.72
2023-02-11T16:26:27.840Z,99756.06
2023-02-11T16:29:31.333Z,99753.53
2023-02-11T16:32:34.813Z,99757.31
2023-02-11T16:35:38.346Z,99761.97
2023-02-11T16:38:41.257Z,99759.56
2023-02-11T16:41:45.548Z,99757.88
2023-02-11T16:44:48.285Z,99744.63
2023-02-11T16:47:51.231Z,99742.41
2023-02-11T16:50:54.694Z,99729.91
2023-02-11T16:53:57.970Z,99721.56
2023-02-11T16:57:03.110Z,99726.38
2023-02-11T17:00:07.086Z,99723.25
2023-02-11T17:03:11.892Z,99722.41
2023-02-11T17:06:14.964Z,99715.38
2023-02-11T17:09:20.324Z,99717.06
2023-02-11T17:12:25.417Z,99726.06
2023-02-11T17:15:28.486Z,99721.25
2023-02-11T17:18:31.180Z,99711.13
2023-02-11T17:21:34.266Z,99705.38
2023-02-11T17:24:37.173Z,99696.28
2023-02-11T17:27:41.785Z,99695.19
2023-02-11T17:30:44.721Z,99694.78
2023-02-11T17:33:48.522Z,99686.81
2023-02-11T17:36:51.843Z,99673.03
2023-02-11T17:39:54.821Z,99670.41
2023-02-11T17:42:59.132Z,99663.31
2023-02-11T17:46:01.967Z,99662.72
2023-02-11T17:49:05.549Z,99659.13
2023-02-11T17:52:08.517Z,99654.94
2023-02-11T17:55:11.445Z,99637.78
2023-02-11T17:58:15.626Z,99637.41
2023-02-11T18:01:18.614Z,99637.16
2023-02-11T18:04:21.507Z,99627.72
2023-02-11T18:07:24.502Z,99632.81
2023-02-11T18:10:27.297Z,99627.72
2023-02-11T18:13:31.694Z,99622.25
2023-02-11T18:16:36.517Z,99613.81
2023-02-11T18:19:39.328Z,99605.22
2023-02-11T18:22:44.380Z,99605.31
2023-02-11T18:25:47.154Z,99606.41
2023-02-11T18:28:52.566Z,99600.56
2023-02-11T18:31:56.664Z,99588.03
2023-02-11T18:34:59.606Z,99584.50
2023-02-11T18:38:02.471Z,99572.94
2023-02-11T18:41:05.331Z,99579.28
2023-02-11T18:44:09.592Z,99560.28
2023-02-11T18:47:12.488Z,99559.50
2023-02-11T18:50:16.239Z,99545.31
2023-02-11T18:53:19.024Z,99546.16
2023-02-11T18:56:22.931Z,99540.81
2023-02-11T18:59:27.129Z,99542.56
2023-02-11T19:02:29.976Z,99532.66
2023-02-11T19:05:33.655Z,99520.44
2023-02-11T19:08:36.454Z,99523.56
2023-02-11T19:11:54.490Z,99520.16
2023-02-11T19:15:00.502Z,99518.84
2023-02-11T19:18:03.404Z,99504.78
2023-02-11T19:21:09.791Z,99496.47
2023-02-11T19:24:13.127Z,99494.09
2023-02-11T19:27:17.110Z,99488.81
2023-02-11T19:30:21.397Z,99494.50
2023-02-11T19:33:24.135Z,99485.78
2023-02-11T19:36:26.895Z,99480.44
2023-02-11T19:39:29.727Z,99486.69
2023-02-11T19:42:32.432Z,99473.50
2023-02-11T19:45:38.209Z,99464.94
2023-02-11T19:48:41.178Z,99475.28
2023-02-11T19:51:44.293Z,99466.69
2023-02-11T19:54:47.035Z,99458.44
2023-02-11T19:57:49.755Z,99452.56
2023-02-11T20:00:54.063Z,99449.34
2023-02-11T20:03:57.780Z,99443.78
2023-02-11T20:07:00.481Z,99430.19
2023-02-11T20:10:03.544Z,99419.22
2023-02-11T20:13:06.771Z,99411.19
2023-02-11T20:16:12.618Z,99407.47
2023-02-11T20:19:17.999Z,99416.63
2023-02-11T20:22:21.348Z,99387.53
2023-02-11T20:25:24.313Z,99384.72
2023-02-11T20:28:27.177Z,99382.91
2023-02-11T20:31:33.032Z,99366.91
2023-02-11T20:34:35.793Z,99356.59
2023-02-11T20:37:41.098Z,99361.31
2023-02-11T20:40:45.387Z,99366.28
2023-02-11T20:43:49.318Z,99362.38
2023-02-11T20:46:54.446Z,99349.72
2023-02-11T20:49:57.506Z,99346.03
2023-02-11T20:53:00.290Z,99329.41
2023-02-11T20:56:03.642Z,99330.78
2023-02-11T20:59:07.157Z,99326.94
2023-02-11T21:02:13.393Z,99323.38
2023-02-11T21:05:16.231Z,99321.28
2023-02-11T21:08:19.145Z,99316.50
2023-02-11T21:11:22.061Z,99311.53
2023-02-11T21:14:25.541Z,99308.34
2023-02-11T21:17:29.894Z,99296.03
2023-02-11T21:20:32.742Z,99291.34
2023-02-11T21:23:35.778Z,99293.19
2023-02-11T21:26:38.845Z,99291.72
2023-02-11T21:29:53.505Z,99295.41
2023-02-11T21:33:00.183Z,99284.88
2023-02-11T21:36:03.784Z,99279.03
2023-02-11T21:39:06.492Z,99276.31
2023-02-11T21:42:09.237Z,99267.69
2023-02-11T21:45:11.979Z,99259.19
2023-02-11T21:48:16.466Z,99244.28
2023-02-11T21:51:20.526Z,99243.63
2023-02-11T21:54:25.789Z,99242.78
2023-02-11T21:57:28.624Z,99233.78
2023-02-11T22:00:32.003Z,99224.09
2023-02-11T22:03:36.116Z,99232.66
2023-02-11T22:06:39.053Z,99225.28
2023-02-11T22:09:41.952Z,99222.47
2023-02-11T22:12:44.758Z,99207.75
2023-02-11T22:15:57.818Z,99202.06
2023-02-11T22:19:03.442Z,99206.59
2023-02-11T22:22:08.003Z,99192.38
2023-02-11T22:25:10.769Z,99179.50
2023-02-11T22:28:13.568Z,99167.50
2023-02-11T22:31:18.381Z,99178.38
2023-02-11T22:34:22.616Z,99164.00
2023-02-11T22:37:25.408Z,99155.66
2023-02-11T22:40:28.217Z,99161.47
2023-02-11T22:43:30.900Z,99146.81
2023-02-11T22:46:33.694Z,99144.97
2023-02-11T22:49:39.542Z,99143.63
2023-02-11T22:52:42.260Z,99137.31
2023-02-11T22:55:44.932Z,99130.78
2023-02-11T22:58:47.951Z,99129.59
2023-02-11T23:01:50.937Z,99123.28
2023-02-11T23:04:55.199Z,99124.59
2023-02-11T23:07:57.907Z,99113.44
2023-02-11T23:11:05.128Z,99109.41
2023-02-11T23:14:10.130Z,99105.06
2023-02-11T23:17:12.835Z,99102.91
2023-02-11T23:20:17.093Z,99106.91
2023-02-11T23:23:19.859Z,99113.25
2023-02-11T23:26:22.642Z,99105.41
2023-02-11T23:29:25.452Z,99099.56
2023-02-11T23:32:28.222Z,99095.03
2023-02-11T23:35:32.373Z,99092.63
2023-02-11T23:38:35.115Z,99092.41
2023-02-11T23:41:37.856Z,99081.66
2023-02-11T23:44:40.612Z,99074.34
2023-02-11T23:47:43.372Z,99075.31
2023-02-11T23:50:47.779Z,99067.31
2023-02-11T23:53:50.520Z,99056.31
2023-02-11T23:56:53.304Z,99048.28
2023-02-11T23:59:56.060Z,99049.13
